Caspiana, Louisiana
Current Conditions -  °F | °C
As of 6:58 PM on Monday 20 Oct 2014 (Local Time) from KBAD Reporting Station
Haze Haze  
Wind Chill: 67°   Ceiling: Unl
Heat Index: 67°   Visibility: 5mi
Dew Point: 56°   Wind: 3mph
Humidity: 66%   Direction: 80°E
Pressure: 30.03"   Gusts: NA
Location:  32.3171°N, 93.6091°W
Report Text: KBAD 202358Z AUTO 08003KT 5SM HZ CLR 20/13 A3003 RMK AO2 SLP172 T01960132 10262 20195 53001
Loading
Personal Weather Stations






























Interactive Weather Map
Tropical Storm Tracking
New forecast layout! Learn more

10-Day Weather Forecast

Advertisements
Track Severe Weather on mobile